Terminal Aerodrome Forecast
Issued by NWS

Home | Current Version | Previous Version | Text Only | Print | Product List | Glossary On
Versions: 1 2 3 4 5 6 7 8 9 10 11 12 13 14 15 16 17 18
000
FTUS43 KGRB 292000 AAB
TAFMTW
TAF AMD
KMTW 292003Z 2920/3018 17017G23KT P6SM BKN007
      TEMPO 2920/2924 SCT007 BKN120
     FM300000 17011KT P6SM VCSH SCT025 BKN100
     FM300400 17009KT 5SM BR VCSH SCT025 OVC080
      TEMPO 3004/3007 2SM -SHRA BR BKN025
     FM300700 18008KT 4SM -SHRA BR SCT006 OVC015
      TEMPO 3007/3011 1 1/2SM TSRA BR BKN006CB
     FM301100 18005KT 3SM -SHRA BR OVC005
     FM301400 23009KT 5SM -SHRA BR OVC011=

USA.gov is the U.S. government's official web portal to all federal, state and local government web resources and services.